Time;durP1;ratioP1;P1;durP2;ratioP2;P2;SDS_P1;SDS_P2;PMS_P1;PMS_P2;Temp;Humidity;BMP_temperature;BMP_pressure;BME280_temperature;BME280_humidity;BME280_pressure;Samples;Min_cycle;Max_cycle;Signal;HPM_P1;HPM_P2
2023/04/02 00:00:09;;;;;;;6.57;6.37;;;10.70;34.60;;;;;;5022488;28;20424;-49
2023/04/02 00:02:57;;;;;;;6.43;6.17;;;10.70;35.40;;;;;;5039642;28;20411;-47
2023/04/02 00:05:30;;;;;;;6.93;6.57;;;10.60;35.10;;;;;;5040276;28;20530;-48
2023/04/02 00:08:02;;;;;;;6.20;6.00;;;10.70;35.10;;;;;;5038828;28;20411;-49
2023/04/02 00:10:45;;;;;;;7.17;6.97;;;10.80;34.50;;;;;;5023413;28;20419;-48
2023/04/02 00:13:11;;;;;;;6.93;6.73;;;10.70;34.80;;;;;;5023077;28;20818;-47
2023/04/02 00:15:43;;;;;;;7.23;7.03;;;10.60;35.20;;;;;;5037900;28;20418;-49
2023/04/02 00:18:18;;;;;;;6.47;6.27;;;10.50;34.90;;;;;;5021355;28;20172;-47
2023/04/02 00:20:50;;;;;;;6.97;6.70;;;10.50;35.40;;;;;;5023047;28;20410;-49
2023/04/02 00:23:15;;;;;;;6.67;6.47;;;10.40;35.40;;;;;;5021103;28;20818;-53
2023/04/02 00:25:44;;;;;;;6.93;6.73;;;10.30;36.30;;;;;;5022053;28;20624;-49
2023/04/02 00:28:22;;;;;;;7.30;7.10;;;10.20;36.10;;;;;;5021459;28;20190;-53
2023/04/02 00:30:54;;;;;;;6.90;6.57;;;10.30;36.20;;;;;;5022421;28;20419;-55
2023/04/02 00:33:24;;;;;;;7.13;6.93;;;10.30;35.70;;;;;;5021250;28;20451;-54
2023/04/02 00:35:52;;;;;;;6.57;6.37;;;10.20;36.20;;;;;;5021338;28;20938;-51
2023/04/02 00:38:30;;;;;;;6.43;6.30;;;10.30;36.50;;;;;;5020732;28;20415;-54
2023/04/02 00:41:00;;;;;;;6.67;6.47;;;10.20;36.20;;;;;;5022255;28;20965;-54
2023/04/02 00:43:29;;;;;;;6.80;6.60;;;10.20;35.90;;;;;;5021624;28;20434;-52
2023/04/02 00:46:00;;;;;;;7.10;6.90;;;10.20;36.80;;;;;;5020384;28;20411;-53
2023/04/02 00:48:40;;;;;;;7.03;6.80;;;10.30;36.40;;;;;;5021784;28;20430;-51
2023/04/02 00:51:34;;;;;;;6.70;6.50;;;10.40;36.20;;;;;;5020166;28;20418;-51
2023/04/02 00:54:03;;;;;;;7.00;6.80;;;10.30;35.80;;;;;;5020625;28;20959;-50
2023/04/02 00:56:44;;;;;;;6.90;6.70;;;10.40;35.90;;;;;;5021078;28;20461;-50
2023/04/02 00:59:18;;;;;;;6.73;6.53;;;10.30;36.20;;;;;;5021141;28;20423;-53
2023/04/02 01:01:44;;;;;;;6.97;6.77;;;10.20;36.60;;;;;;5035769;28;20426;-53
2023/04/02 01:04:33;;;;;;;6.57;6.37;;;10.20;36.10;;;;;;5020787;28;20777;-54
2023/04/02 01:07:03;;;;;;;7.47;7.20;;;10.30;36.40;;;;;;5019849;28;20419;-55
2023/04/02 01:09:41;;;;;;;6.73;6.53;;;10.40;36.20;;;;;;5020102;28;20510;-53
2023/04/02 01:12:34;;;;;;;6.77;6.40;;;10.40;35.60;;;;;;5037810;28;20459;-55
2023/04/02 01:15:05;;;;;;;6.60;6.40;;;10.40;35.60;;;;;;5019026;28;20493;-54
2023/04/02 01:17:58;;;;;;;6.87;6.67;;;10.30;35.60;;;;;;5035360;28;20431;-54
2023/04/02 01:20:58;;;;;;;6.70;6.50;;;10.30;36.00;;;;;;5036469;28;20506;-54
2023/04/02 01:23:42;;;;;;;6.77;6.57;;;10.30;36.00;;;;;;5021474;28;20407;-54
2023/04/02 01:26:20;;;;;;;6.70;6.50;;;10.20;36.10;;;;;;5036855;28;20901;-53
2023/04/02 01:29:10;;;;;;;7.13;6.93;;;10.10;36.50;;;;;;5036472;28;20414;-52
2023/04/02 01:31:37;;;;;;;6.50;6.30;;;10.10;36.70;;;;;;5018347;28;20419;-54
2023/04/02 01:34:07;;;;;;;6.40;6.20;;;10.10;36.90;;;;;;5019956;28;20917;-53
2023/04/02 01:37:01;;;;;;;6.60;6.40;;;10.00;37.10;;;;;;5019572;28;20408;-51
2023/04/02 01:39:45;;;;;;;5.97;5.87;;;10.00;37.30;;;;;;5036066;28;20415;-54
2023/04/02 01:42:24;;;;;;;6.63;6.43;;;9.90;38.60;;;;;;5036578;28;20478;-54
2023/04/02 01:45:05;;;;;;;6.60;6.40;;;9.90;38.40;;;;;;5020845;28;20769;-50
2023/04/02 01:47:32;;;;;;;6.37;6.20;;;9.90;38.10;;;;;;5021824;28;20502;-56
2023/04/02 01:50:21;;;;;;;6.67;6.47;;;9.90;38.10;;;;;;5021657;28;20946;-53
2023/04/02 01:52:54;;;;;;;6.77;6.37;;;9.90;38.60;;;;;;5038325;28;20422;-54
2023/04/02 01:55:31;;;;;;;6.70;6.50;;;9.90;38.60;;;;;;5021989;28;20454;-54
2023/04/02 01:57:59;;;;;;;7.13;6.73;;;9.90;38.20;;;;;;5038272;28;20784;-55
2023/04/02 02:00:26;;;;;;;6.73;6.53;;;9.90;38.10;;;;;;5022966;28;20411;-53
2023/04/02 02:02:52;;;;;;;6.33;6.17;;;9.90;38.20;;;;;;5021042;28;20498;-47
2023/04/02 02:05:21;;;;;;;6.53;6.33;;;10.00;37.30;;;;;;5021941;28;20446;-50
2023/04/02 02:07:48;;;;;;;6.70;6.50;;;10.00;36.70;;;;;;5023156;28;20180;-49
2023/04/02 02:10:15;;;;;;;6.30;6.10;;;10.20;36.50;;;;;;5022368;28;20477;-53
2023/04/02 02:12:43;;;;;;;6.40;6.20;;;10.10;36.40;;;;;;5023664;28;20494;-50
2023/04/02 02:15:18;;;;;;;6.03;5.90;;;10.10;36.60;;;;;;5020812;28;20469;-49
2023/04/02 02:17:43;;;;;;;6.30;6.10;;;10.00;36.60;;;;;;5021549;28;20414;-53
2023/04/02 02:20:11;;;;;;;6.60;6.40;;;10.00;37.10;;;;;;5022137;28;20777;-51
2023/04/02 02:22:42;;;;;;;6.23;6.13;;;10.00;37.00;;;;;;5021225;28;20173;-49
2023/04/02 02:25:18;;;;;;;6.43;6.23;;;10.10;37.00;;;;;;5021911;28;20935;-52
2023/04/02 02:27:49;;;;;;;6.20;6.00;;;10.10;37.00;;;;;;5022780;28;20419;-47
2023/04/02 02:30:20;;;;;;;6.63;6.43;;;10.10;36.50;;;;;;5038309;28;20499;-46
2023/04/02 02:32:51;;;;;;;6.87;6.67;;;10.20;36.10;;;;;;5037151;28;20423;-49
2023/04/02 02:35:43;;;;;;;6.77;6.57;;;10.40;36.20;;;;;;5021857;28;20993;-47
2023/04/02 02:38:24;;;;;;;6.27;6.00;;;10.30;36.80;;;;;;5020618;28;20659;-53
2023/04/02 02:40:53;;;;;;;6.73;6.50;;;10.30;35.90;;;;;;5038695;28;20417;-47
2023/04/02 02:43:19;;;;;;;6.70;6.50;;;10.40;36.20;;;;;;5023326;28;20530;-48
2023/04/02 02:45:47;;;;;;;6.97;6.50;;;10.50;36.00;;;;;;5021550;28;20522;-49
2023/04/02 02:48:17;;;;;;;6.33;6.13;;;10.50;35.30;;;;;;5020468;28;20498;-50
2023/04/02 02:50:43;;;;;;;6.60;6.40;;;10.40;35.70;;;;;;5021151;28;20862;-50
2023/04/02 02:53:21;;;;;;;7.13;6.83;;;10.40;36.00;;;;;;5020939;28;20427;-49
2023/04/02 02:55:50;;;;;;;7.20;6.90;;;10.50;35.80;;;;;;5020832;28;20430;-49
2023/04/02 02:58:31;;;;;;;7.27;7.07;;;10.50;35.60;;;;;;5019432;28;20419;-47
2023/04/02 03:00:56;;;;;;;6.67;6.47;;;10.50;35.80;;;;;;5020115;28;20415;-50
2023/04/02 03:03:27;;;;;;;7.10;6.90;;;10.60;35.60;;;;;;5020712;28;20423;-46
2023/04/02 03:05:56;;;;;;;6.50;6.30;;;10.60;35.50;;;;;;5021695;28;20415;-51
2023/04/02 03:08:55;;;;;;;6.97;6.77;;;10.70;35.30;;;;;;5021370;28;20419;-50
2023/04/02 03:11:32;;;;;;;6.60;6.40;;;10.60;34.90;;;;;;5022121;28;20467;-49
2023/04/02 03:14:18;;;;;;;7.30;7.10;;;10.60;35.30;;;;;;5037909;28;20467;-48
2023/04/02 03:16:48;;;;;;;6.70;6.50;;;10.50;36.00;;;;;;5020115;28;20423;-50
2023/04/02 03:19:23;;;;;;;6.30;6.10;;;10.60;35.60;;;;;;5020147;28;20459;-50
2023/04/02 03:22:01;;;;;;;7.07;6.87;;;10.60;35.30;;;;;;5037445;28;20418;-49
2023/04/02 03:24:54;;;;;;;6.93;6.73;;;10.40;35.90;;;;;;5021426;28;20426;-48
2023/04/02 03:27:38;;;;;;;7.70;7.40;;;10.50;36.20;;;;;;5035814;28;20426;-49
2023/04/02 03:30:33;;;;;;;6.70;6.50;;;10.40;36.60;;;;;;5021349;28;20893;-47
2023/04/02 03:33:03;;;;;;;7.40;7.10;;;10.40;36.90;;;;;;5021500;28;20462;-49
2023/04/02 03:35:44;;;;;;;7.07;6.77;;;10.50;36.30;;;;;;5020436;28;20446;-50
2023/04/02 03:38:26;;;;;;;7.20;7.00;;;10.50;36.70;;;;;;5022710;28;20454;-52
2023/04/02 03:41:21;;;;;;;6.70;6.50;;;10.50;35.90;;;;;;5023242;28;20445;-49
2023/04/02 03:43:51;;;;;;;6.53;6.30;;;10.50;36.50;;;;;;5007794;28;20506;-49
2023/04/02 03:46:34;;;;;;;6.67;6.47;;;10.50;36.80;;;;;;5023739;28;20419;-49
2023/04/02 03:49:05;;;;;;;6.73;6.53;;;10.50;36.30;;;;;;5023387;28;20750;-49
2023/04/02 03:51:56;;;;;;;6.60;6.40;;;10.40;36.50;;;;;;5022750;28;20415;-48
2023/04/02 03:54:22;;;;;;;6.80;6.60;;;10.20;36.90;;;;;;5025770;28;20566;-47
2023/04/02 03:56:50;;;;;;;7.07;6.87;;;10.30;37.70;;;;;;5026771;28;20814;-49
2023/04/02 03:59:31;;;;;;;6.70;6.50;;;10.40;38.00;;;;;;5029001;28;20775;-48
2023/04/02 04:02:05;;;;;;;6.40;6.20;;;10.30;36.90;;;;;;5026789;28;20416;-47
2023/04/02 04:04:32;;;;;;;6.27;6.07;;;10.30;37.20;;;;;;5028443;28;20427;-52
2023/04/02 04:06:59;;;;;;;6.13;6.03;;;10.30;37.60;;;;;;5029340;28;20744;-54
2023/04/02 04:09:38;;;;;;;6.60;6.30;;;10.20;37.80;;;;;;5030356;28;20411;-52
2023/04/02 04:12:18;;;;;;;6.40;6.20;;;10.10;38.00;;;;;;5028539;28;20446;-52
2023/04/02 04:14:51;;;;;;;6.37;6.27;;;10.10;37.90;;;;;;5045594;28;20875;-54
2023/04/02 04:17:33;;;;;;;6.67;6.47;;;10.10;38.00;;;;;;5029518;28;20419;-52
2023/04/02 04:20:24;;;;;;;6.13;5.93;;;10.00;39.00;;;;;;5029778;28;20422;-51
2023/04/02 04:22:54;;;;;;;7.10;6.80;;;10.10;38.60;;;;;;5029545;28;20416;-50
2023/04/02 04:25:32;;;;;;;6.80;6.30;;;10.10;38.60;;;;;;5030559;28;20510;-54
2023/04/02 04:28:04;;;;;;;6.43;6.23;;;10.10;38.50;;;;;;5031027;28;20412;-52
2023/04/02 04:30:33;;;;;;;6.70;6.50;;;10.00;38.80;;;;;;5046737;28;20827;-50
2023/04/02 04:33:11;;;;;;;6.57;6.37;;;9.90;40.20;;;;;;5046988;28;20566;-54
2023/04/02 04:35:44;;;;;;;6.50;6.30;;;9.90;40.10;;;;;;5030109;28;21007;-53
2023/04/02 04:38:26;;;;;;;7.37;7.07;;;10.00;39.10;;;;;;5030228;28;20415;-52
2023/04/02 04:41:03;;;;;;;6.97;6.77;;;10.10;39.20;;;;;;5029356;28;20412;-53
2023/04/02 04:43:53;;;;;;;7.00;6.70;;;10.10;38.80;;;;;;5030669;28;20411;-51
2023/04/02 04:46:22;;;;;;;7.10;6.80;;;10.20;38.70;;;;;;5030607;28;20426;-51
2023/04/02 04:49:08;;;;;;;7.57;7.37;;;10.20;38.70;;;;;;5046701;28;20407;-54
2023/04/02 04:51:43;;;;;;;7.10;6.90;;;10.30;38.40;;;;;;5028929;28;20412;-52
2023/04/02 04:54:13;;;;;;;7.70;7.40;;;10.30;38.60;;;;;;5030679;28;20516;-54
2023/04/02 04:56:39;;;;;;;7.23;7.03;;;10.30;38.70;;;;;;5030233;28;20779;-54
2023/04/02 04:59:26;;;;;;;7.33;7.13;;;10.50;38.30;;;;;;5030284;28;20422;-52
2023/04/02 05:01:58;;;;;;;6.73;6.53;;;10.60;37.90;;;;;;5029921;28;20418;-52
2023/04/02 05:04:33;;;;;;;6.80;6.60;;;10.60;36.90;;;;;;5030301;28;20415;-55
2023/04/02 05:07:21;;;;;;;7.03;6.83;;;10.60;37.60;;;;;;5030822;28;20426;-53
2023/04/02 05:10:07;;;;;;;7.20;7.00;;;10.60;37.70;;;;;;5030908;28;20450;-54
2023/04/02 05:12:50;;;;;;;6.60;6.40;;;10.60;37.80;;;;;;5029469;28;20415;-51
2023/04/02 05:15:31;;;;;;;9.97;7.90;;;10.70;37.50;;;;;;5046402;28;20455;-54
2023/04/02 05:18:25;;;;;;;8.00;7.70;;;10.80;37.00;;;;;;5030880;28;20423;-53
2023/04/02 05:23:35;;;;;;;6.40;6.20;;;10.80;36.40;;;;;;4991116;22;20483;-77
2023/04/02 05:26:23;;;;;;;6.80;6.60;;;10.80;36.50;;;;;;5035346;28;20416;-76
2023/04/02 05:29:10;;;;;;;6.90;6.70;;;10.70;36.40;;;;;;5037082;28;20932;-77
2023/04/02 05:31:41;;;;;;;6.50;6.30;;;10.60;37.20;;;;;;5032287;28;20435;-76
2023/04/02 05:34:08;;;;;;;7.33;7.13;;;10.70;36.20;;;;;;5031307;28;20459;-77
2023/04/02 05:36:34;;;;;;;6.90;6.70;;;10.70;36.50;;;;;;5034354;28;20407;-76
2023/04/02 05:39:00;;;;;;;7.20;7.00;;;10.70;36.90;;;;;;5037084;28;20406;-77
2023/04/02 05:41:39;;;;;;;6.80;6.60;;;10.70;36.90;;;;;;5035133;28;20228;-74
2023/04/02 05:44:10;;;;;;;6.53;6.33;;;10.70;36.20;;;;;;5038163;28;20177;-78
2023/04/02 05:46:42;;;;;;;6.83;6.63;;;10.80;36.00;;;;;;5038048;28;20689;-76
2023/04/02 05:49:17;;;;;;;7.20;7.00;;;10.90;35.80;;;;;;5034598;28;20424;-76
2023/04/02 05:51:47;;;;;;;7.33;7.13;;;10.80;35.70;;;;;;5034105;28;20434;-76
2023/04/02 05:54:26;;;;;;;6.30;6.10;;;11.00;35.40;;;;;;5033980;28;20898;-76
2023/04/02 05:56:56;;;;;;;6.73;6.53;;;10.80;36.20;;;;;;5035474;28;20917;-76
2023/04/02 05:59:32;;;;;;;6.80;6.60;;;10.90;35.50;;;;;;5033369;28;20781;-75
2023/04/02 06:02:18;;;;;;;7.07;6.87;;;10.80;35.90;;;;;;5034333;28;20935;-77
2023/04/02 06:05:15;;;;;;;7.10;6.90;;;10.90;35.30;;;;;;5032184;28;20805;-77
2023/04/02 06:07:47;;;;;;;7.13;6.93;;;10.90;35.30;;;;;;5033080;28;20974;-76
2023/04/02 06:10:24;;;;;;;7.10;6.80;;;10.80;36.00;;;;;;5034754;28;20419;-76
2023/04/02 06:13:05;;;;;;;6.57;6.37;;;10.80;35.80;;;;;;5035075;28;20434;-77
2023/04/02 06:15:33;;;;;;;7.43;7.03;;;10.80;36.10;;;;;;5039820;28;20862;-80
2023/04/02 06:18:03;;;;;;;7.30;7.10;;;10.90;35.70;;;;;;5033410;28;20968;-76
2023/04/02 06:20:29;;;;;;;6.63;6.43;;;10.90;36.30;;;;;;5032221;28;20423;-76
2023/04/02 06:23:27;;;;;;;6.93;6.73;;;10.70;36.90;;;;;;5031446;28;20443;-77
2023/04/02 06:25:56;;;;;;;7.03;6.83;;;10.70;37.10;;;;;;5029195;28;20817;-77
2023/04/02 06:28:41;;;;;;;6.63;6.43;;;10.80;37.00;;;;;;5033572;28;20880;-76
2023/04/02 06:31:14;;;;;;;6.80;6.60;;;10.90;36.60;;;;;;5030137;28;20512;-77
2023/04/02 06:33:41;;;;;;;7.53;7.23;;;11.00;36.00;;;;;;5032389;28;20462;-76
2023/04/02 06:36:08;;;;;;;6.93;6.73;;;11.10;36.00;;;;;;5033364;28;20400;-76
2023/04/02 06:38:35;;;;;;;7.20;7.00;;;11.00;34.80;;;;;;5032651;28;20412;-76
2023/04/02 06:41:18;;;;;;;6.80;6.60;;;11.10;35.40;;;;;;5032538;28;20466;-76
2023/04/02 06:44:10;;;;;;;6.30;6.10;;;11.20;35.20;;;;;;5033952;28;20419;-76
2023/04/02 06:46:44;;;;;;;6.63;6.43;;;11.40;34.60;;;;;;5036566;28;20477;-76
2023/04/02 06:49:19;;;;;;;7.13;6.93;;;11.40;33.90;;;;;;5034308;28;20415;-76
2023/04/02 06:51:46;;;;;;;7.67;7.20;;;11.40;34.50;;;;;;5029281;28;20430;-76
2023/04/02 06:54:14;;;;;;;6.90;6.70;;;11.60;33.80;;;;;;5032190;28;20474;-76
2023/04/02 06:56:49;;;;;;;6.97;6.77;;;11.60;33.60;;;;;;5031867;28;20447;-76
2023/04/02 06:59:16;;;;;;;6.50;6.10;;;11.50;34.10;;;;;;5030993;28;20411;-76
2023/04/02 07:01:51;;;;;;;7.43;6.87;;;11.60;34.00;;;;;;5033059;28;20952;-76
2023/04/02 07:04:19;;;;;;;7.13;6.87;;;11.70;33.80;;;;;;5033870;28;20433;-76
2023/04/02 07:06:44;;;;;;;7.00;6.60;;;11.70;33.00;;;;;;5032510;28;20787;-76
2023/04/02 07:09:10;;;;;;;7.20;6.93;;;11.70;33.40;;;;;;5033610;28;20408;-76
2023/04/02 07:11:36;;;;;;;7.07;6.70;;;11.80;33.10;;;;;;5032712;28;20215;-76
2023/04/02 07:14:02;;;;;;;6.93;6.63;;;11.70;33.00;;;;;;5033584;28;20279;-76
2023/04/02 07:16:30;;;;;;;6.80;6.60;;;11.60;32.90;;;;;;5033757;28;20256;-76
2023/04/02 07:18:57;;;;;;;6.17;5.83;;;11.60;32.90;;;;;;5033587;28;20407;-75
2023/04/02 07:21:24;;;;;;;6.63;6.33;;;11.60;32.90;;;;;;5033144;28;20486;-75
2023/04/02 07:23:50;;;;;;;7.30;7.00;;;11.50;33.00;;;;;;5032684;28;20451;-76
2023/04/02 07:26:21;;;;;;;6.77;6.57;;;11.60;33.30;;;;;;5033576;28;20473;-76
2023/04/02 07:28:47;;;;;;;72.00;53.70;;;11.50;32.80;;;;;;5034925;28;20243;-74
2023/04/02 07:31:19;;;;;;;14.17;12.97;;;11.50;33.60;;;;;;5033862;28;20431;-76
2023/04/02 07:33:45;;;;;;;7.20;6.90;;;11.70;33.60;;;;;;5034659;28;20247;-75
2023/04/02 07:36:16;;;;;;;7.10;6.90;;;11.90;33.10;;;;;;5037320;28;20408;-74
2023/04/02 07:38:42;;;;;;;6.77;6.57;;;12.00;32.60;;;;;;5056341;28;20422;-73
2023/04/02 07:41:08;;;;;;;6.90;6.70;;;12.00;31.90;;;;;;5056156;28;20431;-73
2023/04/02 07:43:34;;;;;;;12.37;11.67;;;12.00;31.80;;;;;;5056239;28;20512;-72
2023/04/02 07:46:00;;;;;;;7.80;7.50;;;12.10;32.10;;;;;;5055671;28;20454;-73
2023/04/02 07:48:26;;;;;;;6.87;6.67;;;12.10;31.60;;;;;;5051746;28;20411;-74
2023/04/02 07:50:52;;;;;;;6.57;6.37;;;12.10;31.10;;;;;;5032343;28;20419;-75
2023/04/02 07:53:30;;;;;;;6.00;5.80;;;12.20;31.50;;;;;;5032266;28;20455;-74
2023/04/02 07:55:57;;;;;;;6.60;6.40;;;12.20;31.60;;;;;;5032075;28;20180;-75
2023/04/02 07:58:23;;;;;;;6.17;5.97;;;12.20;31.70;;;;;;5033016;28;20425;-76
2023/04/02 08:00:48;;;;;;;6.47;6.27;;;12.30;31.30;;;;;;5031221;28;20411;-75
2023/04/02 08:03:15;;;;;;;6.27;6.10;;;12.30;30.90;;;;;;5032077;28;20199;-76
2023/04/02 08:05:40;;;;;;;7.40;7.10;;;12.30;30.50;;;;;;5031812;28;20169;-75
2023/04/02 08:08:06;;;;;;;7.67;7.37;;;12.20;31.70;;;;;;5031363;28;20910;-75
2023/04/02 08:10:32;;;;;;;7.50;7.30;;;12.30;31.30;;;;;;5032600;28;20260;-75
2023/04/02 08:12:57;;;;;;;6.97;6.67;;;12.30;30.90;;;;;;5031953;28;20196;-75
2023/04/02 08:15:23;;;;;;;6.90;6.70;;;12.30;30.80;;;;;;5032793;28;20244;-75
2023/04/02 08:17:48;;;;;;;6.70;6.30;;;12.30;31.20;;;;;;5034580;28;20539;-73
2023/04/02 08:20:20;;;;;;;6.60;6.40;;;12.30;31.00;;;;;;5048627;28;20216;-74
2023/04/02 08:22:46;;;;;;;7.40;7.20;;;12.30;30.30;;;;;;5051697;28;20209;-75
2023/04/02 08:25:12;;;;;;;7.10;6.90;;;12.10;31.40;;;;;;5035843;28;20411;-75
2023/04/02 08:27:38;;;;;;;6.83;6.63;;;12.20;31.30;;;;;;5031683;28;20483;-75
2023/04/02 08:30:06;;;;;;;6.40;6.20;;;12.30;30.80;;;;;;5031382;28;21010;-75
2023/04/02 08:32:32;;;;;;;6.47;6.27;;;12.30;30.30;;;;;;5032001;28;20431;-74
2023/04/02 08:34:57;;;;;;;6.60;6.40;;;12.10;30.80;;;;;;5032214;28;20794;-75
2023/04/02 08:37:23;;;;;;;7.37;7.07;;;12.10;31.20;;;;;;5031291;28;20226;-75
2023/04/02 08:39:48;;;;;;;7.10;6.90;;;12.10;31.70;;;;;;5032585;28;20238;-75
2023/04/02 08:42:36;;;;;;;7.77;7.57;;;12.20;31.70;;;;;;5031671;28;20690;-76
2023/04/02 08:45:16;;;;;;;6.70;6.40;;;12.30;31.60;;;;;;5030871;28;20216;-75
2023/04/02 08:47:43;;;;;;;7.30;7.00;;;12.30;31.70;;;;;;5032303;28;20461;-75
2023/04/02 08:50:33;;;;;;;11.43;10.77;;;12.30;31.70;;;;;;5032234;28;20477;-75
2023/04/02 08:53:05;;;;;;;8.90;8.30;;;12.30;32.00;;;;;;5031837;28;20423;-74
2023/04/02 08:55:35;;;;;;;7.50;7.20;;;12.40;32.00;;;;;;5035390;28;20480;-75
2023/04/02 08:58:29;;;;;;;6.40;6.20;;;12.40;31.90;;;;;;5036380;28;20774;-76
2023/04/02 09:00:56;;;;;;;7.60;7.40;;;12.40;31.80;;;;;;5023177;28;20411;-75
2023/04/02 09:03:35;;;;;;;7.13;6.93;;;12.50;31.70;;;;;;5035630;28;20442;-75
2023/04/02 09:06:02;;;;;;;7.70;7.40;;;12.30;31.60;;;;;;5034892;28;20462;-75
2023/04/02 09:08:30;;;;;;;7.70;7.40;;;12.20;32.30;;;;;;5036844;28;20422;-75
2023/04/02 09:11:29;;;;;;;7.33;7.13;;;12.10;33.00;;;;;;5032358;28;20427;-73
2023/04/02 09:14:02;;;;;;;6.87;6.67;;;12.10;33.30;;;;;;5034687;28;21039;-74
2023/04/02 09:16:48;;;;;;;7.20;6.90;;;12.30;33.10;;;;;;5038127;28;20865;-76
2023/04/02 09:19:17;;;;;;;6.73;6.53;;;12.30;32.50;;;;;;5023577;28;20408;-76
2023/04/02 09:21:53;;;;;;;7.47;7.17;;;12.10;33.40;;;;;;5028724;28;20470;-75
2023/04/02 09:24:19;;;;;;;7.80;7.60;;;12.10;33.30;;;;;;5029670;28;20798;-76
2023/04/02 09:26:45;;;;;;;7.23;6.93;;;12.20;33.50;;;;;;5031633;28;20411;-75
2023/04/02 09:29:10;;;;;;;7.40;7.10;;;12.30;33.50;;;;;;5025059;28;20243;-74
2023/04/02 09:31:42;;;;;;;37.77;29.57;;;12.30;33.00;;;;;;5031245;28;20454;-75
2023/04/02 09:34:28;;;;;;;8.57;8.17;;;12.40;33.60;;;;;;5031072;28;20204;-75
2023/04/02 09:36:54;;;;;;;8.57;8.23;;;12.30;32.90;;;;;;5029072;28;20461;-76
2023/04/02 09:39:27;;;;;;;7.20;6.90;;;12.30;33.10;;;;;;5032061;28;20441;-77
2023/04/02 09:41:53;;;;;;;8.60;8.20;;;12.40;33.50;;;;;;5032028;28;20446;-77
2023/04/02 09:44:20;;;;;;;7.63;7.33;;;12.50;33.70;;;;;;5022018;28;20507;-77
2023/04/02 09:46:58;;;;;;;6.80;6.60;;;12.60;32.30;;;;;;5023695;28;20203;-77
2023/04/02 09:49:26;;;;;;;7.87;7.47;;;12.60;32.10;;;;;;5036227;28;20473;-75
2023/04/02 09:52:18;;;;;;;6.90;6.70;;;12.60;32.10;;;;;;5030585;28;20489;-76
2023/04/02 09:54:44;;;;;;;6.93;6.73;;;12.70;32.20;;;;;;5035497;28;20549;-75
2023/04/02 09:57:20;;;;;;;6.03;5.77;;;12.80;32.50;;;;;;5037172;28;20925;-77
2023/04/02 09:59:45;;;;;;;6.30;6.10;;;12.80;32.60;;;;;;5035439;28;20885;-76
2023/04/02 10:02:27;;;;;;;6.50;6.30;;;12.80;32.40;;;;;;5034012;28;20464;-76
2023/04/02 10:04:52;;;;;;;6.07;5.87;;;12.80;31.70;;;;;;5034364;28;20169;-78
2023/04/02 10:07:36;;;;;;;8.00;7.60;;;12.70;31.70;;;;;;5033469;28;20415;-76
2023/04/02 10:10:15;;;;;;;11.60;10.70;;;12.60;31.80;;;;;;5034613;28;20208;-76
2023/04/02 10:12:43;;;;;;;6.77;6.57;;;12.60;32.10;;;;;;5032628;28;20458;-78
2023/04/02 10:15:17;;;;;;;7.30;6.87;;;12.70;32.20;;;;;;5034231;28;21050;-76
2023/04/02 10:17:44;;;;;;;6.23;6.03;;;12.70;32.30;;;;;;5033900;28;20446;-76
2023/04/02 10:20:24;;;;;;;6.10;5.90;;;12.70;33.00;;;;;;5032332;28;20411;-75
2023/04/02 10:22:50;;;;;;;6.43;6.13;;;12.70;31.70;;;;;;5031505;28;20521;-76
2023/04/02 10:25:18;;;;;;;6.37;6.07;;;12.80;31.70;;;;;;5032554;28;20419;-76
2023/04/02 10:27:59;;;;;;;6.20;6.00;;;12.80;32.10;;;;;;5033297;28;20431;-77
2023/04/02 10:30:32;;;;;;;6.30;6.10;;;12.80;32.30;;;;;;5034103;28;20415;-78
2023/04/02 10:33:06;;;;;;;6.40;6.20;;;12.90;31.20;;;;;;5030014;28;21146;-77
2023/04/02 10:35:45;;;;;;;6.27;6.07;;;12.90;31.60;;;;;;5032286;28;20459;-78
2023/04/02 10:38:42;;;;;;;6.07;5.80;;;12.90;31.30;;;;;;5032541;28;20472;-77
2023/04/02 10:41:33;;;;;;;6.70;6.40;;;12.90;30.10;;;;;;5024728;28;20445;-74
2023/04/02 10:44:12;;;;;;;6.53;6.23;;;12.90;30.20;;;;;;5012347;28;20516;-79
2023/04/02 10:47:21;;;;;;;6.30;6.00;;;12.90;30.20;;;;;;5029502;28;20420;-76
2023/04/02 10:50:10;;;;;;;6.10;5.90;;;13.00;30.50;;;;;;5030638;28;20427;-77
2023/04/02 10:52:44;;;;;;;6.00;5.80;;;12.90;30.10;;;;;;5029060;28;20466;-76
2023/04/02 10:55:17;;;;;;;5.80;5.70;;;12.90;32.20;;;;;;5029711;28;20459;-77
2023/04/02 10:57:44;;;;;;;6.30;6.00;;;12.90;30.70;;;;;;5031320;28;20855;-77
2023/04/02 11:00:10;;;;;;;6.30;5.90;;;12.90;32.40;;;;;;5036723;28;20412;-76
2023/04/02 11:02:51;;;;;;;5.80;5.60;;;12.90;32.70;;;;;;5032608;28;20434;-75
2023/04/02 11:05:29;;;;;;;6.10;5.90;;;12.80;31.30;;;;;;5032841;28;20231;-77
2023/04/02 11:08:03;;;;;;;5.63;5.53;;;12.80;32.80;;;;;;5032094;28;20434;-78
2023/04/02 11:10:32;;;;;;;6.50;6.30;;;12.90;31.50;;;;;;5032585;28;20477;-78
2023/04/02 11:13:08;;;;;;;6.70;6.50;;;12.90;31.00;;;;;;5031982;28;20459;-75
2023/04/02 11:15:35;;;;;;;6.20;6.00;;;13.00;29.90;;;;;;5026543;28;20454;-75
2023/04/02 11:18:00;;;;;;;6.20;6.10;;;13.00;30.70;;;;;;5034454;28;20422;-77
2023/04/02 11:20:47;;;;;;;6.00;5.90;;;13.10;30.00;;;;;;5038169;28;20447;-78
2023/04/02 11:23:18;;;;;;;6.03;5.93;;;13.10;29.70;;;;;;5033380;28;20283;-77
2023/04/02 11:25:44;;;;;;;6.20;6.00;;;13.20;29.70;;;;;;5028898;28;20885;-76
2023/04/02 11:28:30;;;;;;;6.03;5.93;;;13.20;29.30;;;;;;5032167;28;20487;-76
2023/04/02 11:30:56;;;;;;;5.47;5.37;;;13.20;29.10;;;;;;5032423;28;20416;-77
2023/04/02 11:33:34;;;;;;;6.17;5.97;;;13.30;28.50;;;;;;5029366;28;20817;-77
2023/04/02 11:36:00;;;;;;;6.40;6.20;;;13.30;28.80;;;;;;5028004;28;20496;-77
2023/04/02 11:38:26;;;;;;;6.10;6.00;;;13.20;28.60;;;;;;5028544;28;20473;-77
2023/04/02 11:40:54;;;;;;;5.57;5.47;;;13.20;29.50;;;;;;5034514;28;20427;-78
2023/04/02 11:43:35;;;;;;;6.50;6.30;;;13.10;28.30;;;;;;5036182;28;20181;-77
2023/04/02 11:46:33;;;;;;;6.23;6.13;;;13.10;28.30;;;;;;5025570;28;20423;-77
2023/04/02 11:49:32;;;;;;;6.60;6.40;;;13.20;28.50;;;;;;5008912;28;20486;-77
2023/04/02 11:51:57;;;;;;;6.33;6.10;;;13.10;27.60;;;;;;5025923;28;20528;-76
2023/04/02 11:54:27;;;;;;;6.23;6.03;;;13.10;28.10;;;;;;5030122;28;21059;-77
2023/04/02 11:57:13;;;;;;;6.50;6.30;;;13.20;27.10;;;;;;5029429;28;20191;-76
2023/04/02 12:00:09;;;;;;;6.50;6.30;;;13.10;27.00;;;;;;5028789;28;20412;-76
2023/04/02 12:03:03;;;;;;;5.70;5.60;;;13.20;27.60;;;;;;4988873;28;20540;-76
2023/04/02 12:05:41;;;;;;;5.87;5.43;;;13.30;27.50;;;;;;5021662;28;20466;-75
2023/04/02 12:08:46;;;;;;;6.93;6.73;;;13.40;27.20;;;;;;5022336;28;21268;-76
2023/04/02 12:11:13;;;;;;;6.87;6.57;;;13.30;27.70;;;;;;5002662;28;20455;-75
2023/04/02 12:13:38;;;;;;;6.20;6.10;;;13.30;26.80;;;;;;5025017;28;22325;-75
2023/04/02 12:16:08;;;;;;;6.50;6.30;;;13.20;27.30;;;;;;5027729;28;20463;-76
2023/04/02 12:18:35;;;;;;;5.90;5.80;;;13.30;27.10;;;;;;5019324;28;20643;-75
2023/04/02 12:21:01;;;;;;;5.80;5.70;;;13.30;27.10;;;;;;5025666;28;20813;-76
2023/04/02 12:23:35;;;;;;;6.20;6.10;;;13.40;26.70;;;;;;5022883;28;20456;-77
2023/04/02 12:26:07;;;;;;;6.40;6.20;;;13.40;26.70;;;;;;5026014;28;20430;-76
2023/04/02 12:28:36;;;;;;;6.37;6.17;;;13.50;26.80;;;;;;5027768;28;20420;-76
2023/04/02 12:31:08;;;;;;;6.20;6.00;;;13.50;26.80;;;;;;5024005;28;20922;-75
2023/04/02 12:33:43;;;;;;;5.97;5.87;;;13.30;26.80;;;;;;5027566;28;20422;-76
2023/04/02 12:36:15;;;;;;;6.30;6.10;;;13.20;27.60;;;;;;5029627;28;20939;-76
2023/04/02 12:38:45;;;;;;;6.40;6.20;;;13.30;28.00;;;;;;5031067;28;20419;-76
2023/04/02 12:41:34;;;;;;;6.73;6.30;;;13.30;28.30;;;;;;5025865;28;20439;-76
2023/04/02 12:44:03;;;;;;;6.20;6.00;;;13.40;28.10;;;;;;5014961;28;20436;-76
2023/04/02 12:46:30;;;;;;;6.10;5.90;;;13.50;28.20;;;;;;5027238;28;20419;-76
2023/04/02 12:49:20;;;;;;;5.87;5.77;;;13.60;28.20;;;;;;5027090;28;20951;-76
2023/04/02 12:51:47;;;;;;;6.70;6.50;;;13.50;28.20;;;;;;5029690;28;20443;-77
2023/04/02 12:54:16;;;;;;;5.83;5.73;;;13.50;28.40;;;;;;5025612;28;21046;-75
2023/04/02 12:56:42;;;;;;;6.37;6.17;;;13.50;28.50;;;;;;5009597;28;20432;-76
2023/04/02 12:59:33;;;;;;;5.43;5.33;;;13.60;28.20;;;;;;5011682;28;20479;-76
2023/04/02 13:02:01;;;;;;;5.60;5.50;;;13.70;27.80;;;;;;5012509;28;20459;-78
2023/04/02 13:04:26;;;;;;;5.83;5.63;;;13.70;27.60;;;;;;5012247;28;20988;-76
2023/04/02 13:06:56;;;;;;;6.10;5.90;;;13.60;27.80;;;;;;5008692;28;20413;-76
2023/04/02 13:09:26;;;;;;;6.30;5.90;;;13.50;27.60;;;;;;5011317;28;20212;-75
2023/04/02 13:11:52;;;;;;;6.30;6.10;;;13.60;28.10;;;;;;5011703;28;20517;-76
2023/04/02 13:14:20;;;;;;;6.30;6.10;;;13.60;28.20;;;;;;5029304;28;20482;-77
2023/04/02 13:16:46;;;;;;;8.07;7.57;;;13.60;27.80;;;;;;5026237;28;20196;-76
2023/04/02 13:19:30;;;;;;;6.63;6.43;;;13.70;27.40;;;;;;5028872;28;20440;-75
2023/04/02 13:21:59;;;;;;;6.00;5.80;;;13.70;27.90;;;;;;5019570;28;20458;-77
2023/04/02 13:24:27;;;;;;;6.03;5.90;;;13.60;27.80;;;;;;5024521;28;20546;-76
2023/04/02 13:26:55;;;;;;;6.70;6.50;;;13.60;28.50;;;;;;5022027;28;20426;-76